Time;durP1;ratioP1;P1;durP2;ratioP2;P2;SDS_P1;SDS_P2;PMS_P1;PMS_P2;Temp;Humidity;BMP_temperature;BMP_pressure;BME280_temperature;BME280_humidity;BME280_pressure;Samples;Min_cycle;Max_cycle;Signal;HPM_P1;HPM_P2
2023/04/11 00:00:36;;;;;;;9.07;8.17;;;12.00;1.00;;;;;;5121967;27;20476;-80
2023/04/11 00:03:05;;;;;;;8.80;8.10;;;12.00;1.00;;;;;;5117930;27;20456;-80
2023/04/11 00:05:33;;;;;;;9.43;8.53;;;12.00;1.00;;;;;;5119478;27;20445;-80
2023/04/11 00:08:04;;;;;;;9.43;8.17;;;11.90;1.00;;;;;;5119696;27;20460;-81
2023/04/11 00:10:31;;;;;;;9.43;8.53;;;11.90;1.00;;;;;;5121606;27;20474;-80
2023/04/11 00:12:58;;;;;;;8.73;7.93;;;11.90;1.00;;;;;;5116648;27;20527;-81
2023/04/11 00:15:25;;;;;;;8.90;8.13;;;11.90;1.00;;;;;;5113500;27;20485;-81
2023/04/11 00:17:53;;;;;;;8.33;7.63;;;11.90;1.00;;;;;;5123043;27;20464;-80
2023/04/11 00:20:20;;;;;;;9.63;8.73;;;11.80;1.00;;;;;;5122205;27;21778;-81
2023/04/11 00:22:48;;;;;;;9.70;8.80;;;11.80;1.00;;;;;;5119351;27;20451;-81
2023/04/11 00:25:18;;;;;;;9.47;8.57;;;11.80;1.00;;;;;;5120294;27;20826;-79
2023/04/11 00:27:45;;;;;;;8.23;7.50;;;11.80;1.00;;;;;;5117372;27;20520;-80
2023/04/11 00:30:12;;;;;;;8.53;7.73;;;11.90;1.00;;;;;;5120815;27;20549;-80
2023/04/11 00:32:40;;;;;;;9.10;8.23;;;11.90;1.00;;;;;;5122838;27;20461;-82
2023/04/11 00:35:08;;;;;;;8.60;7.80;;;11.90;1.00;;;;;;5119137;27;20545;-81
2023/04/11 00:37:36;;;;;;;9.20;8.20;;;11.90;1.00;;;;;;5114730;27;20498;-81
2023/04/11 00:40:05;;;;;;;10.10;9.17;;;11.80;1.00;;;;;;5108820;27;20543;-81
2023/04/11 00:42:34;;;;;;;8.93;8.03;;;11.80;1.00;;;;;;5120558;27;20464;-81
2023/04/11 00:45:01;;;;;;;9.30;8.40;;;11.70;1.00;;;;;;5121097;27;20453;-82
2023/04/11 00:47:29;;;;;;;9.37;8.40;;;11.70;1.00;;;;;;5117946;27;20473;-81
2023/04/11 00:49:57;;;;;;;9.93;8.93;;;11.70;1.00;;;;;;5116275;27;20570;-85
2023/04/11 00:52:25;;;;;;;9.20;8.30;;;11.70;1.00;;;;;;5119460;27;20464;-81
2023/04/11 00:54:53;;;;;;;8.93;8.03;;;11.60;1.00;;;;;;5120209;27;20454;-82
2023/04/11 00:57:21;;;;;;;8.93;8.13;;;11.60;1.00;;;;;;5122456;27;20522;-79
2023/04/11 00:59:50;;;;;;;8.60;7.87;;;11.60;1.00;;;;;;5121646;27;20437;-81
2023/04/11 01:02:18;;;;;;;9.10;8.30;;;11.60;1.00;;;;;;5123399;27;21258;-81
2023/04/11 01:04:45;;;;;;;9.47;8.57;;;11.50;1.00;;;;;;5119344;27;21384;-80
2023/04/11 01:07:12;;;;;;;8.33;7.53;;;11.50;1.00;;;;;;5122137;27;21229;-80
2023/04/11 01:09:41;;;;;;;9.30;8.50;;;11.60;1.00;;;;;;5124606;27;21238;-80
2023/04/11 01:12:08;;;;;;;9.13;8.23;;;11.60;1.00;;;;;;5123726;27;20447;-80
2023/04/11 01:14:35;;;;;;;9.50;8.60;;;11.50;1.00;;;;;;5125803;27;20470;-80
2023/04/11 01:17:06;;;;;;;8.67;7.77;;;11.60;1.00;;;;;;5114232;27;20442;-80
2023/04/11 01:19:34;;;;;;;8.60;7.80;;;11.60;1.00;;;;;;5124893;27;20458;-80
2023/04/11 01:22:01;;;;;;;10.03;8.67;;;11.60;1.00;;;;;;5117042;27;20465;-81
2023/04/11 01:24:32;;;;;;;9.93;8.93;;;11.60;1.00;;;;;;5124178;27;20450;-80
2023/04/11 01:27:00;;;;;;;12.93;9.77;;;11.60;1.00;;;;;;5125737;27;20516;-81
2023/04/11 01:29:27;;;;;;;9.53;8.60;;;11.60;1.00;;;;;;5123992;27;20509;-79
2023/04/11 01:31:54;;;;;;;8.93;8.13;;;11.60;1.00;;;;;;5119044;27;20483;-81
2023/04/11 01:34:22;;;;;;;9.13;8.23;;;11.60;1.00;;;;;;5121262;27;20461;-80
2023/04/11 01:36:49;;;;;;;8.97;8.07;;;11.60;1.00;;;;;;5126108;27;21241;-80
2023/04/11 01:39:16;;;;;;;8.63;7.97;;;11.50;1.00;;;;;;5124613;27;20457;-81
2023/04/11 01:41:46;;;;;;;9.33;8.43;;;11.50;1.00;;;;;;5123633;27;20562;-81
2023/04/11 01:44:14;;;;;;;9.20;8.30;;;11.50;1.00;;;;;;5123582;27;20515;-82
2023/04/11 01:46:42;;;;;;;9.90;9.00;;;11.40;1.00;;;;;;5125660;27;20465;-81
2023/04/11 01:49:14;;;;;;;10.10;9.17;;;11.50;1.00;;;;;;5117819;27;20457;-80
2023/04/11 01:51:42;;;;;;;9.63;8.77;;;11.50;1.00;;;;;;5134407;27;21203;-79
2023/04/11 01:54:10;;;;;;;11.30;9.50;;;11.40;1.00;;;;;;5125953;27;21320;-80
2023/04/11 01:56:39;;;;;;;9.47;8.67;;;11.50;1.00;;;;;;5127260;27;20458;-81
2023/04/11 01:59:07;;;;;;;10.23;9.23;;;11.50;1.00;;;;;;5125529;27;20453;-79
2023/04/11 02:01:35;;;;;;;10.40;9.40;;;11.50;1.00;;;;;;5126534;27;21001;-79
2023/04/11 02:04:02;;;;;;;9.47;8.57;;;11.50;1.00;;;;;;5120507;27;20645;-82
2023/04/11 02:06:30;;;;;;;9.13;8.33;;;11.50;1.00;;;;;;5120289;27;20497;-80
2023/04/11 02:08:58;;;;;;;9.13;8.30;;;11.50;1.00;;;;;;5125994;27;20474;-80
2023/04/11 02:11:27;;;;;;;9.40;8.50;;;11.50;1.00;;;;;;5127221;27;20449;-81
2023/04/11 02:13:54;;;;;;;9.60;8.70;;;11.50;1.00;;;;;;5123559;27;20458;-81
2023/04/11 02:16:28;;;;;;;9.90;9.00;;;11.50;1.00;;;;;;5122774;27;20462;-81
2023/04/11 02:18:57;;;;;;;9.30;8.40;;;11.50;1.00;;;;;;5122269;27;20486;-81
2023/04/11 02:21:24;;;;;;;9.97;9.07;;;11.40;1.00;;;;;;5123448;27;20446;-82
2023/04/11 02:23:52;;;;;;;10.30;9.30;;;11.40;1.00;;;;;;5122641;27;20467;-81
2023/04/11 02:26:20;;;;;;;11.10;8.70;;;11.40;1.00;;;;;;5120962;27;20488;-82
2023/04/11 02:28:47;;;;;;;9.73;8.83;;;11.40;1.00;;;;;;5118126;27;20516;-80
2023/04/11 02:31:14;;;;;;;9.07;8.17;;;11.30;1.00;;;;;;5122793;27;20425;-82
2023/04/11 02:33:43;;;;;;;10.10;9.20;;;11.40;1.00;;;;;;5123627;27;20478;-84
2023/04/11 02:36:11;;;;;;;9.37;8.57;;;11.30;1.00;;;;;;5120950;27;20450;-82
2023/04/11 02:38:38;;;;;;;10.27;9.20;;;11.30;1.00;;;;;;5124563;27;20468;-81
2023/04/11 02:41:07;;;;;;;10.73;8.93;;;11.40;1.00;;;;;;5125410;27;20457;-80
2023/04/11 02:43:34;;;;;;;13.50;9.60;;;11.40;1.00;;;;;;5125547;27;20483;-81
2023/04/11 02:46:05;;;;;;;9.77;8.77;;;11.30;1.00;;;;;;5131319;27;20414;-80
2023/04/11 02:48:32;;;;;;;10.00;8.93;;;11.30;1.00;;;;;;5125245;27;20476;-80
2023/04/11 02:51:01;;;;;;;10.43;9.43;;;11.30;1.00;;;;;;5123901;27;20516;-80
2023/04/11 02:53:29;;;;;;;9.80;9.00;;;11.30;1.00;;;;;;5126785;27;20461;-80
2023/04/11 02:55:56;;;;;;;9.40;8.50;;;11.20;1.00;;;;;;5124589;27;20463;-81
2023/04/11 02:58:24;;;;;;;9.53;8.70;;;11.20;1.00;;;;;;5120819;27;21018;-81
2023/04/11 03:00:52;;;;;;;9.10;8.30;;;11.10;1.00;;;;;;5124182;27;20463;-79
2023/04/11 03:03:19;;;;;;;10.33;9.30;;;11.10;1.00;;;;;;5123319;27;20467;-80
2023/04/11 03:05:47;;;;;;;9.37;8.50;;;11.10;1.00;;;;;;5118813;27;21363;-79
2023/04/11 03:08:15;;;;;;;9.63;8.73;;;11.10;1.00;;;;;;5122704;27;20477;-80
2023/04/11 03:10:42;;;;;;;10.07;9.03;;;11.10;1.00;;;;;;5120338;27;20457;-81
2023/04/11 03:13:09;;;;;;;9.77;8.87;;;11.10;1.00;;;;;;5122586;27;20486;-81
2023/04/11 03:15:36;;;;;;;10.17;9.27;;;11.10;1.00;;;;;;5122523;27;20531;-81
2023/04/11 03:18:04;;;;;;;10.20;9.20;;;11.10;1.00;;;;;;5121579;27;21207;-80
2023/04/11 03:20:36;;;;;;;8.70;7.90;;;11.10;1.00;;;;;;5125016;27;20507;-79
2023/04/11 03:23:04;;;;;;;11.00;9.90;;;11.10;1.00;;;;;;5120853;27;20482;-80
2023/04/11 03:25:36;;;;;;;9.60;8.70;;;11.10;1.00;;;;;;5122462;27;20445;-81
2023/04/11 03:28:04;;;;;;;9.53;8.63;;;11.00;1.00;;;;;;5125640;27;20477;-79
2023/04/11 03:30:32;;;;;;;10.33;9.43;;;11.00;1.00;;;;;;5119047;27;20493;-80
2023/04/11 03:33:00;;;;;;;9.67;8.77;;;11.00;1.00;;;;;;5127277;27;20457;-79
2023/04/11 03:35:28;;;;;;;9.90;8.90;;;11.00;1.00;;;;;;5120227;27;20988;-80
2023/04/11 03:37:56;;;;;;;10.07;9.10;;;11.10;1.00;;;;;;5121168;27;20473;-80
2023/04/11 03:40:25;;;;;;;10.50;9.43;;;11.10;1.00;;;;;;5125198;27;20497;-80
2023/04/11 03:42:54;;;;;;;9.03;8.13;;;11.10;1.00;;;;;;5122790;27;20486;-80
2023/04/11 03:45:21;;;;;;;10.87;9.80;;;11.10;1.00;;;;;;5124561;27;20556;-80
2023/04/11 03:47:48;;;;;;;8.70;8.00;;;11.10;1.00;;;;;;5122104;27;21323;-81
2023/04/11 03:50:17;;;;;;;9.10;8.20;;;11.10;1.00;;;;;;5122216;27;20959;-80
2023/04/11 03:52:44;;;;;;;8.93;8.13;;;11.20;1.00;;;;;;5126102;27;20456;-80
2023/04/11 03:55:12;;;;;;;8.80;8.00;;;11.20;1.00;;;;;;5117994;27;20895;-79
2023/04/11 03:57:40;;;;;;;9.10;8.20;;;11.20;1.00;;;;;;5124698;27;20488;-80
2023/04/11 04:00:11;;;;;;;9.73;8.80;;;11.10;1.00;;;;;;5115320;27;20445;-80
2023/04/11 04:02:38;;;;;;;10.23;9.23;;;11.10;1.00;;;;;;5124933;27;20469;-80
2023/04/11 04:05:08;;;;;;;10.17;9.30;;;11.10;1.00;;;;;;5118104;27;20973;-78
2023/04/11 04:07:37;;;;;;;8.70;7.80;;;11.10;1.00;;;;;;5122628;27;20490;-80
2023/04/11 04:10:07;;;;;;;8.90;8.00;;;11.00;1.00;;;;;;5117746;27;21132;-80
2023/04/11 04:12:35;;;;;;;9.90;9.00;;;10.90;1.00;;;;;;5119689;27;20625;-81
2023/04/11 04:15:03;;;;;;;9.47;8.57;;;10.70;1.00;;;;;;5115415;27;20445;-81
2023/04/11 04:17:32;;;;;;;9.77;8.10;;;10.70;1.00;;;;;;5121775;27;20533;-79
2023/04/11 04:20:00;;;;;;;9.13;8.27;;;10.60;1.00;;;;;;5120580;27;20533;-80
2023/04/11 04:22:30;;;;;;;9.50;8.60;;;10.50;1.00;;;;;;5121486;27;21225;-80
2023/04/11 04:24:57;;;;;;;9.67;8.73;;;10.50;1.00;;;;;;5125023;27;23341;-80
2023/04/11 04:27:27;;;;;;;10.80;9.33;;;10.50;1.00;;;;;;5122987;27;20464;-82
2023/04/11 04:29:55;;;;;;;10.17;9.23;;;10.40;1.00;;;;;;5118281;27;20464;-80
2023/04/11 04:32:23;;;;;;;9.27;8.33;;;10.40;1.00;;;;;;5125913;27;20472;-80
2023/04/11 04:34:54;;;;;;;9.77;8.80;;;10.30;1.00;;;;;;5126138;27;20429;-81
2023/04/11 04:37:23;;;;;;;10.63;9.63;;;10.30;1.00;;;;;;5127857;27;20448;-80
2023/04/11 04:39:53;;;;;;;10.40;9.40;;;10.30;1.00;;;;;;5129872;27;20517;-81
2023/04/11 04:42:21;;;;;;;10.00;8.50;;;10.10;1.00;;;;;;5127473;27;20975;-80
2023/04/11 04:44:49;;;;;;;11.27;10.20;;;10.00;1.00;;;;;;5129616;27;20449;-80
2023/04/11 04:47:16;;;;;;;10.63;9.57;;;9.80;1.00;;;;;;5130526;27;20640;-80
2023/04/11 04:49:46;;;;;;;11.47;10.27;;;9.60;1.00;;;;;;5126325;27;20468;-82
2023/04/11 04:52:15;;;;;;;11.53;10.33;;;9.50;1.00;;;;;;5129350;27;20421;-81
2023/04/11 04:54:42;;;;;;;12.63;10.50;;;9.30;1.00;;;;;;5125641;27;20515;-81
2023/04/11 04:57:09;;;;;;;10.30;9.20;;;9.20;1.00;;;;;;5129116;27;20495;-81
2023/04/11 04:59:36;;;;;;;12.90;11.20;;;9.10;1.00;;;;;;5122104;27;20618;-81
2023/04/11 05:02:03;;;;;;;11.37;10.17;;;9.00;1.00;;;;;;5109802;27;20425;-81
2023/04/11 05:04:32;;;;;;;13.80;11.37;;;9.00;1.00;;;;;;5130825;27;20456;-79
2023/04/11 05:07:00;;;;;;;11.20;10.10;;;9.00;1.00;;;;;;5127861;27;21309;-80
2023/04/11 05:09:29;;;;;;;11.60;10.03;;;8.90;1.00;;;;;;5127447;27;20461;-80
2023/04/11 05:11:56;;;;;;;10.70;9.60;;;8.90;1.00;;;;;;5127763;27;20883;-81
2023/04/11 05:14:23;;;;;;;12.77;11.40;;;8.80;1.00;;;;;;5123179;27;20483;-80
2023/04/11 05:16:54;;;;;;;11.50;10.40;;;8.80;1.00;;;;;;5127458;27;20458;-81
2023/04/11 05:19:22;;;;;;;12.27;10.83;;;8.80;1.00;;;;;;5128573;27;20421;-81
2023/04/11 05:21:49;;;;;;;10.50;9.40;;;8.80;1.00;;;;;;5123920;27;20487;-82
2023/04/11 05:24:16;;;;;;;12.37;10.63;;;8.80;1.00;;;;;;5124559;27;20470;-82
2023/04/11 05:26:44;;;;;;;11.60;10.37;;;8.80;1.00;;;;;;5122640;27;21198;-82
2023/04/11 05:29:12;;;;;;;11.20;10.10;;;8.80;1.00;;;;;;5123841;27;20454;-82
2023/04/11 05:31:40;;;;;;;12.27;11.00;;;8.80;1.00;;;;;;5124961;27;20461;-83
2023/04/11 05:34:07;;;;;;;11.40;10.20;;;8.80;1.00;;;;;;5125392;27;20406;-84
2023/04/11 05:36:35;;;;;;;12.03;10.73;;;8.80;1.00;;;;;;5128977;27;20480;-85
2023/04/11 05:39:03;;;;;;;12.23;10.00;;;8.90;1.00;;;;;;5124184;27;20449;-82
2023/04/11 05:41:30;;;;;;;11.73;10.57;;;8.80;1.00;;;;;;5119110;27;20480;-79
2023/04/11 05:43:58;;;;;;;10.40;9.00;;;8.80;1.00;;;;;;5120650;27;20492;-79
2023/04/11 05:46:27;;;;;;;11.27;8.97;;;8.80;1.00;;;;;;5122139;27;20584;-76
2023/04/11 05:48:56;;;;;;;11.17;10.03;;;8.80;1.00;;;;;;5113928;27;20425;-79
2023/04/11 05:51:23;;;;;;;10.67;9.33;;;8.80;1.00;;;;;;5115793;27;20461;-78
2023/04/11 05:53:50;;;;;;;11.27;9.90;;;8.70;1.00;;;;;;5113909;27;20533;-77
2023/04/11 05:56:17;;;;;;;12.60;10.03;;;8.80;1.00;;;;;;5117568;27;20593;-79
2023/04/11 05:58:45;;;;;;;13.17;11.40;;;8.80;1.00;;;;;;5115730;27;20532;-77
2023/04/11 06:01:17;;;;;;;11.40;10.20;;;8.80;1.00;;;;;;5119292;27;20480;-76
2023/04/11 06:03:44;;;;;;;13.80;11.80;;;8.80;1.00;;;;;;5125286;27;20534;-79
2023/04/11 06:06:11;;;;;;;11.87;10.67;;;8.80;1.00;;;;;;5123959;27;20461;-79
2023/04/11 06:08:38;;;;;;;11.40;10.20;;;8.90;1.00;;;;;;5120422;27;20496;-78
2023/04/11 06:11:05;;;;;;;13.00;10.97;;;9.00;1.00;;;;;;5118903;27;20422;-81
2023/04/11 06:13:32;;;;;;;11.40;10.20;;;9.00;1.00;;;;;;5128781;27;20475;-80
2023/04/11 06:15:59;;;;;;;11.73;10.53;;;9.10;1.00;;;;;;5126014;27;20454;-80
2023/04/11 06:18:28;;;;;;;13.90;10.67;;;9.20;1.00;;;;;;5128413;27;20450;-80
2023/04/11 06:20:55;;;;;;;14.27;10.70;;;9.30;1.00;;;;;;5112207;27;20461;-81
2023/04/11 06:23:23;;;;;;;14.57;10.40;;;9.30;1.00;;;;;;5122926;27;20470;-81
2023/04/11 06:25:50;;;;;;;12.17;10.93;;;9.40;1.00;;;;;;5125162;27;20445;-81
2023/04/11 06:28:18;;;;;;;12.20;10.50;;;9.40;1.00;;;;;;5129999;27;20453;-81
2023/04/11 06:30:45;;;;;;;13.37;11.33;;;9.50;1.00;;;;;;5129603;27;21125;-80
2023/04/11 06:33:13;;;;;;;16.83;11.20;;;9.50;1.00;;;;;;5125065;27;20481;-86
2023/04/11 06:35:43;;;;;;;12.57;10.70;;;9.60;1.00;;;;;;5130551;27;21087;-81
2023/04/11 06:38:10;;;;;;;13.00;10.40;;;9.60;1.00;;;;;;5126474;27;20446;-82
2023/04/11 06:40:38;;;;;;;13.37;11.53;;;9.60;1.00;;;;;;5129802;27;20483;-86
2023/04/11 06:43:05;;;;;;;15.77;11.23;;;9.60;1.00;;;;;;5125429;27;21609;-86
2023/04/11 06:45:32;;;;;;;12.97;11.50;;;9.60;1.00;;;;;;5118242;27;21289;-84
2023/04/11 06:47:59;;;;;;;12.00;10.53;;;9.60;1.00;;;;;;5125884;27;20449;-80
2023/04/11 06:50:28;;;;;;;15.53;11.00;;;9.60;1.00;;;;;;5124421;27;20462;-80
2023/04/11 06:52:57;;;;;;;12.50;11.00;;;9.70;1.00;;;;;;5119234;27;20825;-80
2023/04/11 06:55:27;;;;;;;12.30;10.23;;;9.70;1.00;;;;;;5120474;27;20872;-87
2023/04/11 06:57:54;;;;;;;11.57;10.37;;;9.70;1.00;;;;;;5123661;27;20461;-82
2023/04/11 07:00:23;;;;;;;12.10;10.80;;;9.70;1.00;;;;;;5129031;27;20453;-85
2023/04/11 07:02:53;;;;;;;15.33;12.37;;;9.70;1.00;;;;;;5110187;27;20448;-84
2023/04/11 07:09:04;;;;;;;14.80;11.00;;;9.90;1.00;;;;;;4938175;28;20437;-86
2023/04/11 07:11:50;;;;;;;12.97;10.77;;;9.90;1.00;;;;;;5117671;27;21350;-81
2023/04/11 07:14:17;;;;;;;13.63;11.23;;;9.90;1.00;;;;;;5110480;27;20489;-77
2023/04/11 07:16:44;;;;;;;16.20;11.17;;;10.00;1.00;;;;;;5123229;27;20523;-86
2023/04/11 07:19:11;;;;;;;11.83;10.63;;;10.10;1.00;;;;;;5126733;27;20459;-82
2023/04/11 07:21:38;;;;;;;13.97;11.50;;;10.10;1.00;;;;;;5130821;27;20464;-84
2023/04/11 07:24:17;;;;;;;13.57;11.97;;;10.30;1.00;;;;;;5132879;27;21472;-85
2023/04/11 07:29:31;;;;;;;12.57;11.27;;;10.10;1.00;;;;;;5134275;27;20466;-86
2023/04/11 07:31:58;;;;;;;12.90;10.23;;;10.00;1.00;;;;;;5131653;27;20481;-91
2023/04/11 07:37:08;;;;;;;13.20;11.43;;;10.20;1.00;;;;;;5122659;27;20454;-88
2023/04/11 07:39:37;;;;;;;14.10;11.10;;;10.20;1.00;;;;;;5130362;27;20456;-86
2023/04/11 07:42:05;;;;;;;12.83;11.53;;;10.20;1.00;;;;;;5129099;27;20893;-84
2023/04/11 07:44:35;;;;;;;13.40;11.57;;;10.20;1.00;;;;;;5130361;27;20495;-88
2023/04/11 07:47:02;;;;;;;14.57;10.97;;;10.20;1.00;;;;;;5131263;27;20518;-88
2023/04/11 07:49:30;;;;;;;15.20;11.43;;;10.20;1.00;;;;;;5135790;27;20577;-85
2023/04/11 07:52:00;;;;;;;13.23;11.03;;;10.10;1.00;;;;;;5147725;27;20432;-85
2023/04/11 07:54:29;;;;;;;12.10;10.40;;;10.30;1.00;;;;;;5140247;27;20493;-83
2023/04/11 07:56:58;;;;;;;11.80;10.53;;;10.40;1.00;;;;;;5134410;27;20432;-83
2023/04/11 07:59:25;;;;;;;14.07;10.93;;;10.40;1.00;;;;;;5122893;27;20449;-83
2023/04/11 08:01:59;;;;;;;12.20;9.70;;;10.50;1.00;;;;;;5121302;27;20469;-81
2023/04/11 08:04:31;;;;;;;14.27;12.33;;;10.60;1.00;;;;;;5119491;27;20454;-81
2023/04/11 08:06:58;;;;;;;12.57;9.90;;;10.70;1.00;;;;;;5128339;27;21135;-81
2023/04/11 08:09:26;;;;;;;12.50;11.20;;;10.70;1.00;;;;;;5132278;27;20406;-85
2023/04/11 08:11:53;;;;;;;12.07;10.13;;;10.80;1.00;;;;;;5134503;27;20435;-86
2023/04/11 08:14:22;;;;;;;12.50;9.80;;;10.80;1.00;;;;;;5137864;27;20410;-90
2023/04/11 08:16:49;;;;;;;12.13;10.83;;;10.80;1.00;;;;;;5132782;27;20480;-87
2023/04/11 08:19:17;;;;;;;11.13;9.80;;;10.90;1.00;;;;;;5130874;27;20433;-89
2023/04/11 08:21:44;;;;;;;10.93;9.83;;;10.90;1.00;;;;;;5139003;27;20520;-82
2023/04/11 08:24:11;;;;;;;9.33;8.43;;;10.80;1.00;;;;;;5136761;27;20449;-85
2023/04/11 08:26:39;;;;;;;10.50;8.50;;;10.70;1.00;;;;;;5137677;27;20429;-88
2023/04/11 08:29:09;;;;;;;8.90;8.00;;;10.70;1.00;;;;;;5133994;27;20508;-87
2023/04/11 08:31:42;;;;;;;10.53;9.10;;;10.60;1.00;;;;;;5135430;27;20520;-84
2023/04/11 08:34:15;;;;;;;13.60;9.90;;;10.50;1.00;;;;;;5107882;27;20406;-84
2023/04/11 08:36:43;;;;;;;13.70;9.60;;;10.50;1.00;;;;;;5127352;27;20451;-89
2023/04/11 08:39:10;;;;;;;11.07;8.20;;;10.50;1.00;;;;;;5130407;27;21643;-84
2023/04/11 08:41:38;;;;;;;9.07;6.33;;;10.40;1.00;;;;;;5129348;27;20485;-87
2023/04/11 08:44:05;;;;;;;6.63;5.83;;;10.30;1.00;;;;;;5125600;27;21841;-84
2023/04/11 08:46:40;;;;;;;6.70;5.77;;;10.20;1.00;;;;;;5114807;27;20477;-80
2023/04/11 08:49:09;;;;;;;8.07;6.33;;;10.10;1.00;;;;;;5103556;27;21025;-79
2023/04/11 08:51:44;;;;;;;7.17;6.27;;;10.10;1.00;;;;;;5103795;27;20427;-79
2023/04/11 08:54:13;;;;;;;8.87;5.20;;;10.20;1.00;;;;;;5100374;27;20508;-78
2023/04/11 08:56:48;;;;;;;6.27;4.80;;;10.20;1.00;;;;;;5106083;27;20449;-82
2023/04/11 08:59:16;;;;;;;6.00;4.60;;;10.10;1.00;;;;;;5115225;27;20478;-80
2023/04/11 09:01:43;;;;;;;5.97;4.47;;;10.00;1.00;;;;;;5116050;27;21260;-79
2023/04/11 09:04:13;;;;;;;6.00;5.03;;;10.00;1.00;;;;;;5120520;27;20614;-80
2023/04/11 09:06:42;;;;;;;5.20;4.43;;;10.00;1.00;;;;;;5123687;27;20461;-80
2023/04/11 09:09:29;;;;;;;11.50;5.60;;;10.00;1.00;;;;;;5126367;27;20453;-82
2023/04/11 09:11:56;;;;;;;7.23;3.60;;;10.00;1.00;;;;;;5129798;27;20426;-80
2023/04/11 09:14:30;;;;;;;5.17;3.40;;;10.00;1.00;;;;;;5130164;27;20421;-82
2023/04/11 09:16:59;;;;;;;5.00;4.07;;;10.10;1.00;;;;;;5114691;27;20476;-81
2023/04/11 09:19:30;;;;;;;6.43;3.97;;;10.20;1.00;;;;;;5126747;27;20516;-80
2023/04/11 09:22:03;;;;;;;8.60;4.40;;;10.40;1.00;;;;;;5125009;27;20486;-81
2023/04/11 09:24:30;;;;;;;9.00;5.10;;;10.40;1.00;;;;;;5127109;27;20492;-79
2023/04/11 09:27:11;;;;;;;5.97;4.00;;;10.50;1.00;;;;;;5128136;27;20565;-80
2023/04/11 09:29:42;;;;;;;5.27;3.17;;;10.60;1.00;;;;;;5129504;27;20532;-82
2023/04/11 09:32:27;;;;;;;4.73;3.60;;;10.60;1.00;;;;;;5127505;27;20448;-78
2023/04/11 09:35:14;;;;;;;5.83;2.97;;;10.70;1.00;;;;;;5127531;27;20524;-84
2023/04/11 09:37:47;;;;;;;4.87;3.70;;;10.90;1.00;;;;;;5122871;27;20445;-81
2023/04/11 09:40:17;;;;;;;6.60;3.53;;;11.10;1.00;;;;;;5118703;27;20456;-79
2023/04/11 09:42:46;;;;;;;6.03;3.57;;;11.50;1.00;;;;;;5117383;27;20656;-78
2023/04/11 09:45:18;;;;;;;7.07;3.50;;;12.00;1.00;;;;;;5120338;27;20540;-76
2023/04/11 09:47:45;;;;;;;5.97;3.70;;;12.90;1.00;;;;;;5115338;27;20500;-79
2023/04/11 09:50:17;;;;;;;6.77;3.03;;;13.60;1.00;;;;;;5107172;27;20429;-79
2023/04/11 09:52:49;;;;;;;8.77;5.00;;;14.10;1.00;;;;;;5106583;27;20680;-81
2023/04/11 09:55:20;;;;;;;5.40;3.10;;;14.10;1.00;;;;;;5110357;27;20448;-80
2023/04/11 09:57:48;;;;;;;5.70;3.60;;;13.80;1.00;;;;;;5106855;27;20488;-80
2023/04/11 10:00:18;;;;;;;5.13;2.80;;;13.90;1.00;;;;;;5117440;27;20428;-81
2023/04/11 10:02:54;;;;;;;4.13;3.20;;;14.30;1.00;;;;;;5106787;27;20456;-81
2023/04/11 10:05:27;;;;;;;5.93;3.90;;;14.50;1.00;;;;;;5112963;27;20487;-79
2023/04/11 10:08:02;;;;;;;6.90;2.70;;;14.50;1.00;;;;;;5109972;27;20491;-79
2023/04/11 10:10:29;;;;;;;4.17;2.20;;;14.70;1.00;;;;;;5126402;27;20464;-79
2023/04/11 10:12:57;;;;;;;5.30;2.70;;;14.80;1.00;;;;;;5122309;27;22685;-78
2023/04/11 10:15:24;;;;;;;6.90;3.00;;;14.80;1.00;;;;;;5124329;27;20534;-79
2023/04/11 10:18:09;;;;;;;8.33;3.50;;;14.90;1.00;;;;;;5126820;27;20708;-79
2023/04/11 10:20:50;;;;;;;4.40;2.70;;;15.00;1.00;;;;;;5115719;27;20549;-79
2023/04/11 10:23:17;;;;;;;4.20;2.90;;;14.80;1.00;;;;;;5122704;27;20461;-79
2023/04/11 10:25:57;;;;;;;4.93;2.60;;;14.80;1.00;;;;;;5122664;27;20457;-78
2023/04/11 10:28:37;;;;;;;3.87;2.20;;;14.90;1.00;;;;;;5125682;27;20464;-79
2023/04/11 10:31:07;;;;;;;6.60;2.70;;;14.50;1.00;;;;;;5123924;27;20541;-79
2023/04/11 10:33:39;;;;;;;2.90;2.30;;;14.50;1.00;;;;;;5125873;27;20432;-79
2023/04/11 10:36:10;;;;;;;3.30;2.20;;;14.40;1.00;;;;;;5116673;27;20453;-80
2023/04/11 10:38:47;;;;;;;3.33;2.07;;;14.70;1.00;;;;;;5125697;27;20454;-80
2023/04/11 10:41:20;;;;;;;3.40;1.50;;;15.30;1.00;;;;;;5120198;27;20978;-77
2023/04/11 10:43:51;;;;;;;6.73;3.03;;;16.40;1.00;;;;;;5108340;27;20544;-79
2023/04/11 10:46:22;;;;;;;4.60;2.30;;;18.20;1.00;;;;;;5104285;27;20459;-78
2023/04/11 10:48:57;;;;;;;5.07;2.20;;;18.90;1.00;;;;;;5105687;27;20484;-79
2023/04/11 10:51:27;;;;;;;4.00;1.90;;;20.00;1.00;;;;;;5105413;27;20539;-79
2023/04/11 10:53:58;;;;;;;4.37;2.10;;;20.60;1.00;;;;;;5110938;27;20454;-79
2023/04/11 10:56:56;;;;;;;4.03;2.20;;;22.00;1.00;;;;;;5115309;27;20450;-79
2023/04/11 10:59:58;;;;;;;2.47;1.73;;;23.00;1.00;;;;;;5119651;27;20441;-80
2023/04/11 11:02:37;;;;;;;3.47;1.87;;;23.00;1.00;;;;;;5114684;27;20449;-84
2023/04/11 11:05:22;;;;;;;5.57;2.90;;;22.00;1.00;;;;;;5109380;27;20479;-84
2023/04/11 11:07:52;;;;;;;4.03;2.70;;;20.40;1.00;;;;;;5108733;27;20476;-83
2023/04/11 11:10:41;;;;;;;4.17;2.40;;;18.90;1.00;;;;;;5113901;27;20503;-82
2023/04/11 11:13:08;;;;;;;5.40;2.43;;;17.80;1.00;;;;;;5099284;27;20453;-81
2023/04/11 11:15:37;;;;;;;5.37;2.40;;;16.80;1.00;;;;;;5126000;27;20429;-83
2023/04/11 11:18:09;;;;;;;2.77;1.80;;;16.00;1.00;;;;;;5119480;27;20482;-82
2023/04/11 11:20:37;;;;;;;4.10;1.90;;;15.10;1.00;;;;;;5118239;27;20559;-82
2023/04/11 11:23:07;;;;;;;2.90;2.00;;;14.90;1.00;;;;;;5118346;27;20452;-82
2023/04/11 11:25:35;;;;;;;3.40;2.00;;;14.80;1.00;;;;;;5110508;27;20849;-83
2023/04/11 11:28:04;;;;;;;3.50;1.63;;;15.00;1.00;;;;;;5107289;27;20551;-80
2023/04/11 11:30:32;;;;;;;3.90;3.00;;;15.10;1.00;;;;;;5103090;27;20466;-81
2023/04/11 11:33:00;;;;;;;3.27;1.67;;;15.10;1.00;;;;;;5108034;27;20421;-83
2023/04/11 11:35:53;;;;;;;2.80;2.37;;;15.90;1.00;;;;;;5117388;27;20429;-84
2023/04/11 11:38:29;;;;;;;1.83;1.70;;;18.70;1.00;;;;;;5119087;27;20422;-85
2023/04/11 11:40:58;;;;;;;5.13;1.83;;;21.30;1.00;;;;;;5116551;27;20600;-87
2023/04/11 11:43:30;;;;;;;4.40;2.60;;;23.10;1.00;;;;;;5113660;27;20531;-87
2023/04/11 11:46:20;;;;;;;2.50;1.97;;;23.40;1.00;;;;;;5128469;27;20443;-88
2023/04/11 11:49:24;;;;;;;4.13;2.03;;;22.90;1.00;;;;;;5104990;27;20553;-88
2023/04/11 11:51:52;;;;;;;2.40;1.80;;;23.60;1.00;;;;;;5114279;27;20447;-82
2023/04/11 11:54:22;;;;;;;3.37;2.30;;;25.30;1.00;;;;;;5123350;27;21107;-80
2023/04/11 11:56:51;;;;;;;3.67;1.50;;;25.70;1.00;;;;;;5125641;27;20475;-80
2023/04/11 11:59:29;;;;;;;2.20;1.80;;;26.70;1.00;;;;;;5124100;27;20517;-80
2023/04/11 12:01:57;;;;;;;3.20;2.20;;;26.50;1.00;;;;;;5130887;27;20474;-82
2023/04/11 12:04:25;;;;;;;3.13;1.77;;;26.70;1.00;;;;;;5128267;27;20435;-82
2023/04/11 12:06:53;;;;;;;1.77;1.60;;;27.50;1.00;;;;;;5127933;27;20477;-81
2023/04/11 12:09:22;;;;;;;4.40;1.70;;;27.20;1.00;;;;;;5118192;27;20495;-82
2023/04/11 12:11:49;;;;;;;1.80;1.70;;;25.40;1.00;;;;;;5123982;27;20486;-83
2023/04/11 12:14:22;;;;;;;1.83;1.50;;;23.80;1.00;;;;;;5118850;27;20449;-81
2023/04/11 12:16:53;;;;;;;2.93;1.67;;;24.20;1.00;;;;;;5124954;27;20488;-84
2023/04/11 12:19:23;;;;;;;2.53;2.33;;;23.90;1.00;;;;;;5125952;27;20522;-83
2023/04/11 12:21:51;;;;;;;3.77;2.80;;;21.80;1.00;;;;;;5124193;27;20436;-79
2023/04/11 12:24:22;;;;;;;2.20;1.67;;;19.90;1.00;;;;;;5119357;27;20453;-80
2023/04/11 12:26:49;;;;;;;1.57;1.07;;;18.50;1.00;;;;;;5123028;27;20542;-81
2023/04/11 12:29:16;;;;;;;1.93;1.47;;;18.50;1.00;;;;;;5125675;27;21950;-80
2023/04/11 12:31:47;;;;;;;3.63;1.40;;;17.90;1.00;;;;;;5121695;27;20985;-81
2023/04/11 12:34:16;;;;;;;2.60;1.90;;;16.70;1.00;;;;;;5123449;27;20413;-80
2023/04/11 12:36:43;;;;;;;1.50;1.30;;;15.50;1.00;;;;;;5119769;27;20506;-79
2023/04/11 12:39:12;;;;;;;1.50;1.40;;;14.50;1.00;;;;;;5117449;27;20621;-79
2023/04/11 12:41:41;;;;;;;3.07;1.43;;;14.10;1.00;;;;;;5122536;27;20433;-82
2023/04/11 12:44:08;;;;;;;2.60;1.63;;;14.60;1.00;;;;;;5120714;27;20526;-81
2023/04/11 12:46:36;;;;;;;2.40;1.47;;;15.60;1.00;;;;;;5116391;27;20849;-80
2023/04/11 12:49:03;;;;;;;3.00;1.70;;;15.60;1.00;;;;;;5120237;27;20408;-81
2023/04/11 12:51:30;;;;;;;7.03;1.83;;;15.20;1.00;;;;;;5118205;27;20437;-81
2023/04/11 12:53:57;;;;;;;2.17;1.97;;;14.70;1.00;;;;;;5113917;27;20487;-81
2023/04/11 12:56:25;;;;;;;2.83;2.23;;;14.20;1.00;;;;;;5126428;27;21331;-80
2023/04/11 12:58:54;;;;;;;7.47;3.30;;;13.80;1.00;;;;;;5120138;27;20552;-81
2023/04/11 13:01:23;;;;;;;4.37;3.80;;;14.80;1.00;;;;;;5120615;27;20890;-82
2023/04/11 13:03:53;;;;;;;3.80;2.77;;;15.30;1.00;;;;;;5120413;27;20872;-80
2023/04/11 13:06:22;;;;;;;3.67;2.50;;;15.20;1.00;;;;;;5112586;27;20465;-82
2023/04/11 13:08:50;;;;;;;2.53;2.10;;;14.90;1.00;;;;;;5123379;27;20540;-81
2023/04/11 13:11:17;;;;;;;4.50;3.17;;;14.50;1.00;;;;;;5110785;27;20468;-80
2023/04/11 13:13:44;;;;;;;3.80;2.90;;;14.30;1.00;;;;;;5121183;27;22653;-81